createdAt,value
2022-08-12T00:00:14.945Z,97637.34
2022-08-12T00:03:17.676Z,97636.25
2022-08-12T00:06:23.287Z,97646.06
2022-08-12T00:09:26.578Z,97642.81
2022-08-12T00:12:33.024Z,97652.66
2022-08-12T00:15:41.018Z,97652.88
2022-08-12T00:18:42.138Z,97653.47
2022-08-12T00:21:52.048Z,97656.13
2022-08-12T00:24:59.302Z,97653.72
2022-08-12T00:27:59.727Z,97659.34
2022-08-12T00:31:07.301Z,97661.25
2022-08-12T00:34:15.069Z,97654.78
2022-08-12T00:37:17.568Z,97657.78
2022-08-12T00:40:31.033Z,97651.59
2022-08-12T00:43:23.312Z,97660.97
2022-08-12T00:46:24.311Z,97659.91
2022-08-12T00:49:08.048Z,97665.16
2022-08-12T00:52:16.046Z,97674.56
2022-08-12T00:55:01.819Z,97676.97
2022-08-12T00:57:51.049Z,97685.97
2022-08-12T01:00:41.544Z,97684.34
2022-08-12T01:03:29.283Z,97682.31
2022-08-12T01:06:37.275Z,97685.63
2022-08-12T01:09:47.307Z,97684.03
2022-08-12T01:12:31.030Z,97671.66
2022-08-12T01:15:21.072Z,97689.00
2022-08-12T01:18:13.275Z,97686.00
2022-08-12T01:21:00.385Z,97686.69
2022-08-12T01:24:29.657Z,97684.66
2022-08-12T01:27:16.031Z,97686.09
2022-08-12T01:30:08.056Z,97691.50
2022-08-12T01:33:01.313Z,97696.41
2022-08-12T01:35:59.504Z,97696.88
2022-08-12T01:38:56.040Z,97703.44
2022-08-12T01:41:53.930Z,97697.66
2022-08-12T01:44:40.267Z,97694.25
2022-08-12T01:47:59.244Z,97700.34
2022-08-12T01:51:24.427Z,97704.16
2022-08-12T01:54:28.431Z,97714.88
2022-08-12T01:57:58.669Z,97714.41
2022-08-12T02:00:35.938Z,97720.22
2022-08-12T02:03:29.281Z,97725.94
2022-08-12T02:06:46.726Z,97729.59
2022-08-12T02:09:58.278Z,97723.56
2022-08-12T02:12:52.443Z,97735.75
2022-08-12T02:16:04.303Z,97739.97
2022-08-12T02:19:13.330Z,97736.69
2022-08-12T02:22:38.355Z,97735.03
2022-08-12T02:25:42.148Z,97740.75
2022-08-12T02:28:24.322Z,97746.97
2022-08-12T02:31:16.014Z,97741.16
2022-08-12T02:34:01.781Z,97747.56
2022-08-12T02:36:52.025Z,97753.66
2022-08-12T02:39:44.077Z,97749.41
2022-08-12T02:42:43.905Z,97755.75
2022-08-12T02:45:53.171Z,97766.72
2022-08-12T02:48:59.452Z,97761.38
2022-08-12T02:51:52.099Z,97762.22
2022-08-12T02:54:35.562Z,97763.03
2022-08-12T02:57:28.280Z,97759.34
2022-08-12T03:00:10.556Z,97763.38
2022-08-12T03:03:00.038Z,97769.41
2022-08-12T03:06:11.333Z,97774.16
2022-08-12T03:09:05.443Z,97770.31
2022-08-12T03:12:00.328Z,97774.34
2022-08-12T03:14:51.029Z,97774.63
2022-08-12T03:18:24.215Z,97780.72
2022-08-12T03:21:02.286Z,97783.09
2022-08-12T03:23:48.599Z,97784.16
2022-08-12T03:26:39.283Z,97782.91
2022-08-12T03:29:43.432Z,97782.47
2022-08-12T03:32:45.736Z,97787.44
2022-08-12T03:35:41.912Z,97794.16
2022-08-12T03:38:29.528Z,97783.59
2022-08-12T03:41:45.274Z,97789.66
2022-08-12T03:45:35.027Z,97783.94
2022-08-12T03:49:03.010Z,97786.34
2022-08-12T03:52:11.041Z,97784.06
2022-08-12T03:55:18.007Z,97784.84
2022-08-12T03:58:20.809Z,97788.53
2022-08-12T04:01:09.093Z,97782.53
2022-08-12T04:03:54.552Z,97788.13
2022-08-12T04:06:45.274Z,97789.75
2022-08-12T04:09:41.285Z,97779.06
2022-08-12T04:12:47.710Z,97787.81
2022-08-12T04:15:33.053Z,97782.78
2022-08-12T04:18:26.060Z,97779.28
2022-08-12T04:21:18.288Z,97777.31
2022-08-12T04:24:01.684Z,97778.16
2022-08-12T04:26:50.278Z,97781.03
2022-08-12T04:30:32.859Z,97778.25
2022-08-12T04:32:44.483Z,97767.16
2022-08-12T04:35:33.261Z,97783.44
2022-08-12T04:38:22.275Z,97776.25
2022-08-12T04:41:06.744Z,97772.63
2022-08-12T04:44:02.129Z,97769.47
2022-08-12T04:46:57.271Z,97768.31
2022-08-12T04:49:47.524Z,97766.28
2022-08-12T04:52:34.407Z,97773.88
2022-08-12T04:55:17.974Z,97773.75
2022-08-12T04:58:08.291Z,97773.72
2022-08-12T05:00:57.323Z,97771.78
2022-08-12T05:03:46.832Z,97768.16
2022-08-12T05:06:35.453Z,97763.41
2022-08-12T05:09:18.148Z,97762.72
2022-08-12T05:12:06.214Z,97762.22
2022-08-12T05:14:48.263Z,97755.06
2022-08-12T05:17:36.588Z,97755.38
2022-08-12T05:20:29.468Z,97766.53
2022-08-12T05:23:21.535Z,97752.44
2022-08-12T05:26:04.033Z,97752.09
2022-08-12T05:28:55.092Z,97746.94
2022-08-12T05:31:47.426Z,97755.56
2022-08-12T05:34:36.272Z,97747.41
2022-08-12T05:37:18.031Z,97750.41
2022-08-12T05:40:11.175Z,97745.91
2022-08-12T05:42:54.018Z,97736.59
2022-08-12T05:45:39.213Z,97727.91
2022-08-12T05:48:40.021Z,97734.47
2022-08-12T05:51:41.702Z,97727.50
2022-08-12T05:54:47.639Z,97721.94
2022-08-12T05:57:39.264Z,97721.25
2022-08-12T06:00:29.027Z,97712.78
2022-08-12T06:03:14.988Z,97704.75
2022-08-12T06:06:05.025Z,97712.59
2022-08-12T06:08:49.381Z,97710.00
2022-08-12T06:11:38.271Z,97719.59
2022-08-12T06:14:27.287Z,97699.75
2022-08-12T06:17:10.586Z,97698.28
2022-08-12T06:20:27.432Z,97693.66
2022-08-12T06:23:01.416Z,97686.09
2022-08-12T06:25:51.266Z,97687.66
2022-08-12T06:28:33.495Z,97688.06
2022-08-12T06:31:27.145Z,97677.22
2022-08-12T06:35:25.621Z,97679.50
2022-08-12T06:37:26.251Z,97682.69
2022-08-12T06:40:11.100Z,97676.59
2022-08-12T06:43:00.005Z,97667.63
2022-08-12T06:45:50.280Z,97669.47
2022-08-12T06:48:43.288Z,97663.81
2022-08-12T06:51:53.482Z,97657.13
2022-08-12T06:54:45.058Z,97660.41
2022-08-12T06:58:08.045Z,97647.94
2022-08-12T07:00:39.608Z,97645.16
2022-08-12T07:03:39.025Z,97644.31
2022-08-12T07:06:28.254Z,97643.34
2022-08-12T07:09:13.286Z,97635.97
2022-08-12T07:12:05.256Z,97631.06
2022-08-12T07:14:52.473Z,97625.31
2022-08-12T07:17:45.258Z,97629.94
2022-08-12T07:20:51.757Z,97617.28
2022-08-12T07:23:35.017Z,97611.88
2022-08-12T07:26:18.154Z,97618.75
2022-08-12T07:29:07.037Z,97606.78
2022-08-12T07:31:49.310Z,97601.31
2022-08-12T07:34:38.286Z,97597.66
2022-08-12T07:37:20.013Z,97594.09
2022-08-12T07:40:09.078Z,97600.09
2022-08-12T07:42:58.008Z,97592.22
2022-08-12T07:45:41.573Z,97584.91
2022-08-12T07:48:32.101Z,97590.78
2022-08-12T07:51:24.730Z,97577.34
2022-08-12T07:54:08.980Z,97573.91
2022-08-12T07:56:58.249Z,97579.78
2022-08-12T07:59:41.143Z,97566.84
2022-08-12T08:02:29.011Z,97565.00
2022-08-12T08:05:14.036Z,97555.75
2022-08-12T08:08:09.275Z,97557.47
2022-08-12T08:10:52.454Z,97560.03
2022-08-12T08:13:40.031Z,97551.03
2022-08-12T08:16:22.539Z,97539.34
2022-08-12T08:19:12.031Z,97547.06
2022-08-12T08:21:56.023Z,97536.38
2022-08-12T08:24:45.001Z,97534.63
2022-08-12T08:27:27.541Z,97523.84
2022-08-12T08:30:19.013Z,97511.97
2022-08-12T08:33:23.011Z,97521.56
2022-08-12T08:36:23.546Z,97508.72
2022-08-12T08:39:13.351Z,97509.94
2022-08-12T08:42:18.915Z,97508.81
2022-08-12T08:45:20.036Z,97506.34
2022-08-12T08:48:10.262Z,97503.38
2022-08-12T08:51:05.894Z,97494.84
2022-08-12T08:54:01.083Z,97491.66
2022-08-12T08:56:50.634Z,97494.44
2022-08-12T08:59:39.022Z,97486.31
2022-08-12T09:02:21.154Z,97480.00
2022-08-12T09:05:14.633Z,97473.06
2022-08-12T09:08:12.245Z,97469.31
2022-08-12T09:10:59.908Z,97459.50
2022-08-12T09:14:11.779Z,97457.53
2022-08-12T09:16:51.904Z,97447.94
2022-08-12T09:19:43.277Z,97454.47
2022-08-12T09:22:25.921Z,97449.72
2022-08-12T09:25:25.551Z,97439.50
2022-08-12T09:28:18.391Z,97431.13
2022-08-12T09:31:05.275Z,97438.88
2022-08-12T09:34:28.857Z,97429.97
2022-08-12T09:37:19.539Z,97419.34
2022-08-12T09:41:01.726Z,97416.56
2022-08-12T09:43:32.079Z,97414.28
2022-08-12T09:46:25.865Z,97403.88
2022-08-12T09:49:13.484Z,97401.22
2022-08-12T09:52:05.269Z,97405.22
2022-08-12T09:54:59.810Z,97399.16
2022-08-12T09:58:47.064Z,97399.66
2022-08-12T10:00:55.220Z,97388.31
2022-08-12T10:04:03.618Z,97387.69
2022-08-12T10:06:55.355Z,97383.25
2022-08-12T10:09:57.149Z,97389.50
2022-08-12T10:13:08.320Z,97384.41
2022-08-12T10:16:03.000Z,97386.25
2022-08-12T10:19:07.009Z,97381.03
2022-08-12T10:21:59.527Z,97379.81
2022-08-12T10:25:17.914Z,97373.56
2022-08-12T10:28:24.983Z,97374.50
2022-08-12T10:31:16.478Z,97371.91
2022-08-12T10:34:06.552Z,97367.94
2022-08-12T10:37:58.150Z,97366.16
2022-08-12T10:40:25.351Z,97355.94
2022-08-12T10:43:55.635Z,97361.69
2022-08-12T10:46:38.650Z,97345.66
2022-08-12T10:50:03.422Z,97358.75
2022-08-12T10:52:37.907Z,97347.41
2022-08-12T10:55:35.876Z,97351.31
2022-08-12T10:58:31.915Z,97356.06
2022-08-12T11:01:49.615Z,97345.72
2022-08-12T11:04:39.380Z,97354.59
2022-08-12T11:08:34.448Z,97350.94
2022-08-12T11:10:35.070Z,97353.06
2022-08-12T11:13:17.681Z,97343.66
2022-08-12T11:16:21.865Z,97340.66
2022-08-12T11:19:05.664Z,97343.56
2022-08-12T11:21:57.908Z,97337.84
2022-08-12T11:24:51.125Z,97335.56
2022-08-12T11:27:41.156Z,97335.56
2022-08-12T11:30:32.118Z,97331.22
2022-08-12T11:33:23.933Z,97332.56
2022-08-12T11:36:22.127Z,97332.19
2022-08-12T11:39:12.567Z,97327.00
2022-08-12T11:41:54.538Z,97330.41
2022-08-12T11:44:43.521Z,97328.22
2022-08-12T11:47:25.253Z,97331.16
2022-08-12T11:50:19.715Z,97327.28
2022-08-12T11:53:02.378Z,97321.47
2022-08-12T11:55:57.120Z,97315.97
2022-08-12T12:01:58.986Z,97313.53
2022-08-12T12:02:08.145Z,97303.59
2022-08-12T12:04:59.603Z,97300.50
2022-08-12T12:08:37.129Z,97307.25
2022-08-12T12:10:44.013Z,97302.16
2022-08-12T12:14:06.879Z,97306.75
2022-08-12T12:16:39.614Z,97306.97
2022-08-12T12:19:22.215Z,97314.81
2022-08-12T12:22:15.785Z,97304.56
2022-08-12T12:25:14.016Z,97302.72
2022-08-12T12:28:05.055Z,97297.97
2022-08-12T12:30:55.162Z,97307.81
2022-08-12T12:33:56.750Z,97301.25
2022-08-12T12:36:48.570Z,97304.59
2022-08-12T12:39:54.588Z,97303.19
2022-08-12T12:42:55.437Z,97297.72
2022-08-12T12:45:44.343Z,97310.22
2022-08-12T12:48:35.247Z,97300.56
2022-08-12T12:51:51.743Z,97301.03
2022-08-12T12:54:27.387Z,97300.38
2022-08-12T12:57:36.155Z,97307.53
2022-08-12T13:00:40.279Z,97303.69
2022-08-12T13:03:49.155Z,97308.66
2022-08-12T13:06:39.284Z,97310.91
2022-08-12T13:09:22.263Z,97303.72
2022-08-12T13:12:12.263Z,97308.56
2022-08-12T13:15:00.341Z,97293.28
2022-08-12T13:18:02.159Z,97302.19
2022-08-12T13:20:46.653Z,97292.91
2022-08-12T13:23:36.900Z,97300.88
2022-08-12T13:26:27.242Z,97297.66
2022-08-12T13:29:11.477Z,97300.47
2022-08-12T13:32:28.319Z,97294.53
2022-08-12T13:35:19.817Z,97294.69
2022-08-12T13:38:12.245Z,97300.19
2022-08-12T13:40:55.279Z,97301.84
2022-08-12T13:43:44.255Z,97298.78
2022-08-12T13:46:26.637Z,97302.84
2022-08-12T13:49:55.334Z,97304.41
2022-08-12T13:52:31.319Z,97303.66
2022-08-12T13:55:20.010Z,97306.09
2022-08-12T13:58:06.147Z,97315.69
2022-08-12T14:01:12.248Z,97310.19
2022-08-12T14:04:05.793Z,97314.28
2022-08-12T14:06:49.816Z,97320.63
2022-08-12T14:09:57.068Z,97323.41
2022-08-12T14:12:54.836Z,97320.69
2022-08-12T14:15:45.931Z,97326.63
2022-08-12T14:18:41.263Z,97326.34
2022-08-12T14:21:30.854Z,97330.34
2022-08-12T14:24:34.265Z,97330.00
2022-08-12T14:28:04.544Z,97329.66
2022-08-12T14:30:31.027Z,97334.41
2022-08-12T14:33:18.745Z,97340.91
2022-08-12T14:36:11.269Z,97347.31
2022-08-12T14:38:56.785Z,97349.38
2022-08-12T14:41:48.379Z,97344.22
2022-08-12T14:44:57.584Z,97349.00
2022-08-12T14:47:49.917Z,97352.19
2022-08-12T14:51:02.864Z,97353.38
2022-08-12T14:57:19.192Z,97361.75
2022-08-12T15:00:10.185Z,97367.75
2022-08-12T15:02:58.337Z,97372.13
2022-08-12T15:06:04.915Z,97374.53
2022-08-12T15:08:48.204Z,97376.56
2022-08-12T15:11:55.017Z,97373.78
2022-08-12T15:14:45.678Z,97379.34
2022-08-12T15:17:37.977Z,97370.22
2022-08-12T15:20:33.469Z,97383.69
2022-08-12T15:23:22.033Z,97383.69
2022-08-12T15:26:20.881Z,97380.94
2022-08-12T15:29:10.412Z,97386.50
2022-08-12T15:32:01.017Z,97389.25
2022-08-12T15:34:46.020Z,97391.66
2022-08-12T15:37:58.920Z,97387.72
2022-08-12T15:40:48.205Z,97388.88
2022-08-12T15:44:17.128Z,97398.00
2022-08-12T15:46:40.056Z,97397.63
2022-08-12T15:49:24.035Z,97398.00
2022-08-12T15:52:27.183Z,97408.78
2022-08-12T15:55:11.559Z,97413.91
2022-08-12T15:58:02.010Z,97414.34
2022-08-12T16:00:48.899Z,97418.28
2022-08-12T16:03:59.136Z,97419.50
2022-08-12T16:07:05.648Z,97419.06
2022-08-12T16:10:04.493Z,97416.72
2022-08-12T16:12:55.164Z,97423.06
2022-08-12T16:16:01.574Z,97424.66
2022-08-12T16:18:45.451Z,97423.88
2022-08-12T16:21:52.127Z,97419.47
2022-08-12T16:24:44.664Z,97424.25
2022-08-12T16:27:38.519Z,97427.81
2022-08-12T16:30:20.586Z,97433.00
2022-08-12T16:33:24.025Z,97434.59
2022-08-12T16:36:06.862Z,97444.50
2022-08-12T16:39:01.278Z,97440.53
2022-08-12T16:41:44.952Z,97443.72
2022-08-12T16:48:48.799Z,97440.13
2022-08-12T16:51:49.972Z,97450.84
2022-08-12T16:54:39.089Z,97447.25
2022-08-12T16:57:34.619Z,97445.25
2022-08-12T17:00:25.010Z,97451.59
2022-08-12T17:03:28.744Z,97454.75
2022-08-12T17:06:22.439Z,97459.16
2022-08-12T17:09:16.987Z,97457.91
2022-08-12T17:12:07.078Z,97458.72
2022-08-12T17:14:53.038Z,97469.03
2022-08-12T17:17:44.992Z,97467.47
2022-08-12T17:20:37.877Z,97473.00
2022-08-12T17:23:33.399Z,97474.59
2022-08-12T17:26:32.324Z,97472.56
2022-08-12T17:29:24.379Z,97474.59
2022-08-12T17:32:31.014Z,97474.16
2022-08-12T17:35:36.921Z,97476.16
2022-08-12T17:38:21.834Z,97483.69
2022-08-12T17:41:22.937Z,97488.03
2022-08-12T17:44:15.714Z,97497.53
2022-08-12T17:47:05.482Z,97495.97
2022-08-12T17:50:01.844Z,97494.38
2022-08-12T17:52:53.163Z,97498.34
2022-08-12T17:55:48.172Z,97495.53
2022-08-12T17:58:41.018Z,97497.53
2022-08-12T18:01:34.864Z,97507.09
2022-08-12T18:04:35.971Z,97499.19
2022-08-12T18:07:31.251Z,97498.34
2022-08-12T18:10:43.154Z,97507.06
2022-08-12T18:13:34.541Z,97512.63
2022-08-12T18:16:24.433Z,97514.22
2022-08-12T18:19:15.329Z,97516.19
2022-08-12T18:22:04.278Z,97520.56
2022-08-12T18:25:02.298Z,97529.16
2022-08-12T18:27:47.041Z,97525.22
2022-08-12T18:30:36.027Z,97528.84
2022-08-12T18:33:29.836Z,97521.72
2022-08-12T18:36:26.969Z,97524.84
2022-08-12T18:39:11.156Z,97528.31
2022-08-12T18:42:01.275Z,97527.50
2022-08-12T18:45:10.263Z,97530.75
2022-08-12T18:47:53.576Z,97536.28
2022-08-12T18:50:49.003Z,97529.16
2022-08-12T18:54:06.458Z,97530.72
2022-08-12T18:56:44.259Z,97534.66
2022-08-12T19:00:00.868Z,97537.03
2022-08-12T19:02:40.023Z,97534.66
2022-08-12T19:05:52.626Z,97535.44
2022-08-12T19:08:37.915Z,97540.97
2022-08-12T19:11:45.350Z,97534.63
2022-08-12T19:14:30.417Z,97533.03
2022-08-12T19:17:19.010Z,97534.19
2022-08-12T19:20:08.157Z,97527.50
2022-08-12T19:23:00.067Z,97527.88
2022-08-12T19:25:59.654Z,97522.31
2022-08-12T19:28:50.287Z,97520.31
2022-08-12T19:31:58.172Z,97521.13
2022-08-12T19:38:10.777Z,97516.31
2022-08-12T19:41:00.016Z,97521.88
2022-08-12T19:44:00.432Z,97518.31
2022-08-12T19:46:52.691Z,97517.88
2022-08-12T19:49:38.585Z,97513.09
2022-08-12T19:52:27.011Z,97509.91
2022-08-12T19:55:19.840Z,97507.94
2022-08-12T19:58:11.841Z,97511.50
2022-08-12T20:01:00.516Z,97505.94
2022-08-12T20:03:59.350Z,97502.75
2022-08-12T20:06:56.893Z,97509.91
2022-08-12T20:09:46.241Z,97504.75
2022-08-12T20:13:10.220Z,97508.28
2022-08-12T20:15:45.504Z,97509.03
2022-08-12T20:18:53.165Z,97508.22
2022-08-12T20:21:40.731Z,97509.03
2022-08-12T20:24:31.591Z,97508.63
2022-08-12T20:27:28.592Z,97504.63
2022-08-12T20:30:13.998Z,97497.88
2022-08-12T20:33:05.147Z,97497.06
2022-08-12T20:36:13.706Z,97492.28
2022-08-12T20:39:00.969Z,97487.94
2022-08-12T20:41:44.545Z,97492.66
2022-08-12T20:44:43.939Z,97490.72
2022-08-12T20:47:26.432Z,97493.88
2022-08-12T20:50:31.250Z,97492.28
2022-08-12T20:53:18.576Z,97485.91
2022-08-12T20:56:33.538Z,97484.00
2022-08-12T20:59:21.621Z,97485.56
2022-08-12T21:02:11.333Z,97486.72
2022-08-12T21:05:23.035Z,97481.97
2022-08-12T21:08:22.143Z,97480.38
2022-08-12T21:11:04.482Z,97480.38
2022-08-12T21:13:59.057Z,97481.16
2022-08-12T21:16:52.480Z,97479.56
2022-08-12T21:19:52.918Z,97479.56
2022-08-12T21:22:45.673Z,97479.16
2022-08-12T21:25:36.310Z,97477.16
2022-08-12T21:28:34.247Z,97481.16
2022-08-12T21:32:37.239Z,97477.94
2022-08-12T21:34:29.451Z,97483.94
2022-08-12T21:37:26.450Z,97478.75
2022-08-12T21:40:18.276Z,97479.94
2022-08-12T21:43:00.539Z,97477.13
2022-08-12T21:46:00.357Z,97495.38
2022-08-12T21:48:43.510Z,97496.97
2022-08-12T21:51:50.451Z,97492.94
2022-08-12T21:54:42.980Z,97499.28
2022-08-12T21:57:36.052Z,97498.50
2022-08-12T22:00:24.086Z,97490.53
2022-08-12T22:04:02.880Z,97486.19
2022-08-12T22:06:43.802Z,97488.19
2022-08-12T22:09:43.409Z,97487.00
2022-08-12T22:12:40.145Z,97495.31
2022-08-12T22:15:22.429Z,97498.44
2022-08-12T22:18:16.080Z,97500.81
2022-08-12T22:21:04.521Z,97505.59
2022-08-12T22:23:51.715Z,97503.59
2022-08-12T22:26:46.403Z,97497.63
2022-08-12T22:29:52.995Z,97505.19
2022-08-12T22:32:45.996Z,97508.31
2022-08-12T22:35:47.463Z,97509.94
2022-08-12T22:38:45.007Z,97509.53
2022-08-12T22:41:46.694Z,97503.13
2022-08-12T22:44:55.339Z,97507.50
2022-08-12T22:47:54.479Z,97503.94
2022-08-12T22:50:44.982Z,97505.47
2022-08-12T22:53:36.161Z,97511.44
2022-08-12T22:56:31.088Z,97516.63
2022-08-12T22:59:21.808Z,97509.50
2022-08-12T23:02:04.486Z,97515.03
2022-08-12T23:04:52.992Z,97520.19
2022-08-12T23:07:58.725Z,97517.81
2022-08-12T23:10:49.243Z,97511.81
2022-08-12T23:13:54.856Z,97520.50
2022-08-12T23:16:38.880Z,97512.66
2022-08-12T23:19:38.031Z,97513.81
2022-08-12T23:23:05.767Z,97511.84
2022-08-12T23:25:32.770Z,97513.78
2022-08-12T23:28:53.272Z,97520.50
2022-08-12T23:32:02.803Z,97524.44
2022-08-12T23:34:51.226Z,97511.78
2022-08-12T23:37:47.074Z,97517.63
2022-08-12T23:40:42.234Z,97520.47
2022-08-12T23:43:26.323Z,97512.09
2022-08-12T23:46:32.248Z,97516.06
2022-08-12T23:49:55.744Z,97508.50
2022-08-12T23:52:23.979Z,97514.03
2022-08-12T23:55:24.633Z,97509.69
2022-08-12T23:58:21.311Z,97513.69
